COA1053 KPHX-KDEN
Flight info
| Callsign | COA1053 |
|---|---|
| Flight time | 1h 28m |
| Altitude | 35000 |
| Route | MRBIL1 JARPA CRUDD TBARR4 |
| Aircraft | MD83/M-SDFGIRWY/S |
Departure
| Time | 2026-05-07 21:37 |
|---|---|
| Airport | Phoenix Sky Harbor International Airport (KPHX) |
Arrival
| Time | 2026-05-07 23:05 |
|---|---|
| Airport | Denver International Airport (KDEN) |
| Time | Latitude | Longitude | Altitude | Speed | Heading |
|---|---|---|---|---|---|
| 2026-05-07 21:26 | 33.43761 | -112.00805 | 1125 ft | 0 kts | 277° |
| 2026-05-07 21:30 | 33.43758 | -112.00788 | 1125 ft | 4 kts | 296° |
| 2026-05-07 21:30 | 33.43750 | -112.00763 | 1113 ft | 4 kts | 297° |
| 2026-05-07 21:30 | 33.43734 | -112.00743 | 1114 ft | 4 kts | 335° |
| 2026-05-07 21:30 | 33.43709 | -112.00736 | 1115 ft | 4 kts | 358° |
| 2026-05-07 21:31 | 33.43701 | -112.00736 | 1125 ft | 3 kts | 0° |
| 2026-05-07 21:32 | 33.43720 | -112.00736 | 1118 ft | 7 kts | 0° |
| 2026-05-07 21:32 | 33.43787 | -112.00735 | 1125 ft | 10 kts | 0° |
| 2026-05-07 21:32 | 33.43860 | -112.00735 | 1120 ft | 11 kts | 360° |
| 2026-05-07 21:33 | 33.43935 | -112.00734 | 1118 ft | 12 kts | 6° |
| 2026-05-07 21:33 | 33.43974 | -112.00656 | 1121 ft | 13 kts | 88° |
| 2026-05-07 21:33 | 33.43974 | -112.00520 | 1124 ft | 20 kts | 90° |
| 2026-05-07 21:33 | 33.43974 | -112.00334 | 1121 ft | 23 kts | 90° |
| 2026-05-07 21:34 | 33.43973 | -112.00148 | 1122 ft | 22 kts | 90° |
| 2026-05-07 21:34 | 33.43973 | -111.99966 | 1125 ft | 22 kts | 90° |
| 2026-05-07 21:34 | 33.43973 | -111.99788 | 1123 ft | 21 kts | 90° |
| 2026-05-07 21:34 | 33.43973 | -111.99614 | 1129 ft | 21 kts | 90° |
| 2026-05-07 21:35 | 33.43973 | -111.99443 | 1121 ft | 21 kts | 90° |
| 2026-05-07 21:35 | 33.43973 | -111.99282 | 1134 ft | 15 kts | 86° |
| 2026-05-07 21:35 | 33.44030 | -111.99224 | 1136 ft | 9 kts | 5° |
| 2026-05-07 21:35 | 33.44072 | -111.99235 | 1140 ft | 5 kts | 316° |
| 2026-05-07 21:36 | 33.44082 | -111.99278 | 1138 ft | 6 kts | 271° |
| 2026-05-07 21:36 | 33.44083 | -111.99292 | 1136 ft | 2 kts | 270° |
| 2026-05-07 21:36 | 33.44083 | -111.99502 | 1136 ft | 54 kts | 270° |
| 2026-05-07 21:36 | 33.44084 | -112.00229 | 1131 ft | 120 kts | 270° |
| 2026-05-07 21:37 | 33.44084 | -112.01441 | 1141 ft | 173 kts | 270° |
| 2026-05-07 21:37 | 33.44078 | -112.02948 | 1744 ft | 178 kts | 269° |
| 2026-05-07 21:37 | 33.44089 | -112.04307 | 2673 ft | 165 kts | 270° |
| 2026-05-07 21:37 | 33.44108 | -112.05882 | 2508 ft | 214 kts | 270° |
| 2026-05-07 21:38 | 33.44145 | -112.07820 | 2532 ft | 247 kts | 271° |
| 2026-05-07 21:38 | 33.44202 | -112.09906 | 3126 ft | 251 kts | 272° |
| 2026-05-07 21:38 | 33.44267 | -112.12011 | 3845 ft | 255 kts | 272° |
| 2026-05-07 21:38 | 33.44359 | -112.14135 | 4632 ft | 257 kts | 275° |
| 2026-05-07 21:39 | 33.44513 | -112.16272 | 5383 ft | 259 kts | 278° |
| 2026-05-07 21:39 | 33.45105 | -112.18298 | 6123 ft | 261 kts | 306° |
| 2026-05-07 21:39 | 33.46380 | -112.19836 | 6865 ft | 261 kts | 326° |
| 2026-05-07 21:39 | 33.48013 | -112.20783 | 7586 ft | 261 kts | 349° |
| 2026-05-07 21:40 | 33.49809 | -112.20854 | 8311 ft | 260 kts | 8° |
| 2026-05-07 21:40 | 33.51601 | -112.20522 | 8979 ft | 261 kts | 10° |
| 2026-05-07 21:40 | 33.53395 | -112.20159 | 9719 ft | 261 kts | 12° |
| 2026-05-07 21:40 | 33.55197 | -112.19589 | 10069 ft | 276 kts | 18° |
| 2026-05-07 21:41 | 33.57090 | -112.18834 | 10234 ft | 297 kts | 19° |
| 2026-05-07 21:41 | 33.59111 | -112.18039 | 10451 ft | 313 kts | 18° |
| 2026-05-07 21:41 | 33.61211 | -112.17151 | 10690 ft | 328 kts | 27° |
| 2026-05-07 21:41 | 33.63063 | -112.15446 | 10835 ft | 346 kts | 45° |
| 2026-05-07 21:42 | 33.64730 | -112.13284 | 11077 ft | 358 kts | 47° |
| 2026-05-07 21:42 | 33.66409 | -112.11028 | 11466 ft | 367 kts | 47° |
| 2026-05-07 21:42 | 33.68124 | -112.08731 | 12052 ft | 370 kts | 47° |
| 2026-05-07 21:42 | 33.69844 | -112.06443 | 12812 ft | 368 kts | 47° |
| 2026-05-07 21:43 | 33.71572 | -112.04172 | 13503 ft | 369 kts | 46° |
| 2026-05-07 21:43 | 33.73308 | -112.01926 | 13964 ft | 377 kts | 46° |
| 2026-05-07 21:43 | 33.75104 | -111.99607 | 14447 ft | 380 kts | 48° |
| 2026-05-07 21:43 | 33.76780 | -111.97147 | 15137 ft | 380 kts | 51° |
| 2026-05-07 21:44 | 33.78385 | -111.94622 | 15803 ft | 381 kts | 52° |
| 2026-05-07 21:44 | 33.79981 | -111.92061 | 16418 ft | 383 kts | 52° |
| 2026-05-07 21:44 | 33.81577 | -111.89489 | 17039 ft | 385 kts | 52° |
| 2026-05-07 21:44 | 33.83187 | -111.86904 | 17653 ft | 387 kts | 52° |
| 2026-05-07 21:45 | 33.84812 | -111.84310 | 18229 ft | 390 kts | 52° |
| 2026-05-07 21:45 | 33.86451 | -111.81713 | 18804 ft | 390 kts | 52° |
| 2026-05-07 21:45 | 33.88104 | -111.79108 | 19236 ft | 395 kts | 52° |
| 2026-05-07 21:45 | 33.89783 | -111.76471 | 19679 ft | 398 kts | 52° |
| 2026-05-07 21:46 | 33.91467 | -111.73822 | 20236 ft | 399 kts | 52° |
| 2026-05-07 21:46 | 33.93154 | -111.71159 | 20742 ft | 401 kts | 52° |
| 2026-05-07 21:46 | 33.94855 | -111.68469 | 21127 ft | 406 kts | 52° |
| 2026-05-07 21:46 | 33.96575 | -111.65754 | 21599 ft | 409 kts | 52° |
| 2026-05-07 21:47 | 33.98303 | -111.63028 | 22111 ft | 411 kts | 52° |
| 2026-05-07 21:47 | 34.00089 | -111.60328 | 22538 ft | 415 kts | 46° |
| 2026-05-07 21:47 | 34.02343 | -111.58143 | 23005 ft | 417 kts | 35° |
| 2026-05-07 21:47 | 34.04807 | -111.56257 | 23475 ft | 422 kts | 33° |
| 2026-05-07 21:48 | 34.07320 | -111.54410 | 23910 ft | 424 kts | 33° |
| 2026-05-07 21:48 | 34.09841 | -111.52559 | 24410 ft | 425 kts | 32° |
| 2026-05-07 21:48 | 34.12362 | -111.50672 | 24822 ft | 427 kts | 33° |
| 2026-05-07 21:48 | 34.14889 | -111.48771 | 25264 ft | 429 kts | 33° |
| 2026-05-07 21:49 | 34.17393 | -111.46905 | 25758 ft | 429 kts | 33° |
| 2026-05-07 21:49 | 34.19933 | -111.44980 | 26138 ft | 433 kts | 33° |
| 2026-05-07 21:49 | 34.22471 | -111.43019 | 26538 ft | 434 kts | 34° |
| 2026-05-07 21:49 | 34.25013 | -111.41040 | 27022 ft | 433 kts | 33° |
| 2026-05-07 21:50 | 34.27536 | -111.39074 | 27644 ft | 429 kts | 33° |
| 2026-05-07 21:50 | 34.30029 | -111.37131 | 28296 ft | 424 kts | 33° |
| 2026-05-07 21:50 | 34.32507 | -111.35216 | 28870 ft | 422 kts | 33° |
| 2026-05-07 21:50 | 34.34980 | -111.33302 | 29200 ft | 424 kts | 33° |
| 2026-05-07 21:51 | 34.37469 | -111.31369 | 29518 ft | 425 kts | 33° |
| 2026-05-07 21:51 | 34.39952 | -111.29442 | 30023 ft | 423 kts | 33° |
| 2026-05-07 21:51 | 34.42418 | -111.27528 | 30511 ft | 419 kts | 33° |
| 2026-05-07 21:51 | 34.44864 | -111.25634 | 30972 ft | 415 kts | 33° |
| 2026-05-07 21:52 | 34.47294 | -111.23752 | 31300 ft | 414 kts | 33° |
| 2026-05-07 21:52 | 34.49718 | -111.21872 | 31675 ft | 413 kts | 33° |
| 2026-05-07 21:52 | 34.52133 | -111.19994 | 32049 ft | 412 kts | 33° |
| 2026-05-07 21:52 | 34.54538 | -111.18125 | 32444 ft | 409 kts | 33° |
| 2026-05-07 21:53 | 34.56927 | -111.16264 | 32836 ft | 407 kts | 33° |
| 2026-05-07 21:53 | 34.59305 | -111.14415 | 33208 ft | 405 kts | 33° |
| 2026-05-07 21:53 | 34.61676 | -111.12577 | 33498 ft | 405 kts | 34° |
| 2026-05-07 21:53 | 34.63898 | -111.10465 | 33621 ft | 408 kts | 43° |
| 2026-05-07 21:54 | 34.65918 | -111.08035 | 33828 ft | 409 kts | 46° |
| 2026-05-07 21:54 | 34.67859 | -111.05582 | 34151 ft | 408 kts | 46° |
| 2026-05-07 21:54 | 34.69820 | -111.03103 | 34437 ft | 406 kts | 45° |
| 2026-05-07 21:54 | 34.71783 | -111.00645 | 34712 ft | 405 kts | 45° |
| 2026-05-07 21:55 | 34.73758 | -110.98201 | 34868 ft | 406 kts | 45° |
| 2026-05-07 21:55 | 34.75762 | -110.95752 | 34962 ft | 410 kts | 44° |
| 2026-05-07 21:55 | 34.79824 | -110.90838 | 35033 ft | 412 kts | 44° |
| 2026-05-07 21:56 | 34.83875 | -110.85952 | 35074 ft | 408 kts | 44° |
| 2026-05-07 21:56 | 34.87896 | -110.81093 | 35109 ft | 407 kts | 44° |
| 2026-05-07 21:57 | 34.91910 | -110.76217 | 35133 ft | 409 kts | 44° |
| 2026-05-07 21:57 | 34.95902 | -110.71344 | 35141 ft | 410 kts | 45° |
| 2026-05-07 21:58 | 34.99936 | -110.66406 | 35148 ft | 412 kts | 45° |
| 2026-05-07 21:58 | 35.03973 | -110.61458 | 34991 ft | 411 kts | 44° |
| 2026-05-07 21:59 | 35.08000 | -110.56535 | 34990 ft | 409 kts | 44° |
| 2026-05-07 21:59 | 35.12015 | -110.51617 | 34993 ft | 409 kts | 45° |
| 2026-05-07 22:00 | 35.16032 | -110.46691 | 34977 ft | 409 kts | 45° |
| 2026-05-07 22:00 | 35.20057 | -110.41749 | 34980 ft | 411 kts | 44° |
| 2026-05-07 22:01 | 35.24090 | -110.36775 | 34985 ft | 412 kts | 44° |
| 2026-05-07 22:01 | 35.28118 | -110.31781 | 34978 ft | 412 kts | 44° |
| 2026-05-07 22:02 | 35.32139 | -110.26809 | 34982 ft | 410 kts | 44° |
| 2026-05-07 22:02 | 35.36127 | -110.21880 | 34974 ft | 410 kts | 44° |
| 2026-05-07 22:03 | 35.40145 | -110.16907 | 34971 ft | 411 kts | 44° |
| 2026-05-07 22:03 | 35.44165 | -110.11925 | 34979 ft | 411 kts | 44° |
| 2026-05-07 22:04 | 35.48173 | -110.06949 | 34972 ft | 414 kts | 44° |
| 2026-05-07 22:04 | 35.52223 | -110.01907 | 34976 ft | 415 kts | 44° |
| 2026-05-07 22:05 | 35.56250 | -109.96840 | 34977 ft | 413 kts | 44° |
| 2026-05-07 22:05 | 35.60259 | -109.91825 | 34975 ft | 410 kts | 44° |
| 2026-05-07 22:06 | 35.64278 | -109.86827 | 34977 ft | 412 kts | 44° |
| 2026-05-07 22:06 | 35.68309 | -109.81810 | 34973 ft | 413 kts | 44° |
| 2026-05-07 22:07 | 35.72386 | -109.76838 | 34977 ft | 412 kts | 41° |
| 2026-05-07 22:07 | 35.76679 | -109.72137 | 34973 ft | 413 kts | 39° |
| 2026-05-07 22:08 | 35.81026 | -109.67486 | 34975 ft | 414 kts | 39° |
| 2026-05-07 22:08 | 35.85360 | -109.62791 | 34975 ft | 414 kts | 39° |
| 2026-05-07 22:09 | 35.89660 | -109.58086 | 34970 ft | 412 kts | 40° |
| 2026-05-07 22:09 | 35.93918 | -109.53414 | 34978 ft | 413 kts | 40° |
| 2026-05-07 22:10 | 35.98213 | -109.48701 | 34982 ft | 414 kts | 40° |
| 2026-05-07 22:10 | 36.02515 | -109.43971 | 34984 ft | 414 kts | 39° |
| 2026-05-07 22:11 | 36.06821 | -109.39215 | 34990 ft | 416 kts | 40° |
| 2026-05-07 22:11 | 36.11133 | -109.34444 | 34990 ft | 416 kts | 40° |
| 2026-05-07 22:12 | 36.15452 | -109.29658 | 35000 ft | 417 kts | 39° |
| 2026-05-07 22:12 | 36.19781 | -109.24880 | 34995 ft | 417 kts | 39° |
| 2026-05-07 22:13 | 36.24113 | -109.20089 | 34996 ft | 417 kts | 39° |
| 2026-05-07 22:13 | 36.28438 | -109.15294 | 35008 ft | 417 kts | 39° |
| 2026-05-07 22:14 | 36.32765 | -109.10489 | 35009 ft | 418 kts | 39° |
| 2026-05-07 22:14 | 36.36362 | -109.06482 | 35002 ft | 418 kts | 39° |
| 2026-05-07 22:15 | 36.40680 | -109.01644 | 35003 ft | 418 kts | 39° |
| 2026-05-07 22:15 | 36.45004 | -108.96810 | 34993 ft | 418 kts | 39° |
| 2026-05-07 22:16 | 36.49342 | -108.91970 | 34996 ft | 420 kts | 39° |
| 2026-05-07 22:16 | 36.53684 | -108.87114 | 34994 ft | 421 kts | 39° |
| 2026-05-07 22:17 | 36.58036 | -108.82239 | 34994 ft | 421 kts | 39° |
| 2026-05-07 22:17 | 36.62342 | -108.77408 | 35002 ft | 418 kts | 39° |
| 2026-05-07 22:18 | 36.68838 | -108.70087 | 35007 ft | 421 kts | 39° |
| 2026-05-07 22:19 | 36.73186 | -108.65170 | 35016 ft | 422 kts | 39° |
| 2026-05-07 22:19 | 36.77545 | -108.60247 | 35030 ft | 423 kts | 39° |
| 2026-05-07 22:20 | 36.81915 | -108.55311 | 35048 ft | 423 kts | 39° |
| 2026-05-07 22:20 | 36.86265 | -108.50388 | 35055 ft | 422 kts | 39° |
| 2026-05-07 22:21 | 36.90609 | -108.45468 | 35054 ft | 421 kts | 39° |
| 2026-05-07 22:21 | 36.94952 | -108.40537 | 35067 ft | 424 kts | 39° |
| 2026-05-07 22:22 | 36.99321 | -108.35553 | 35059 ft | 426 kts | 39° |
| 2026-05-07 22:22 | 37.03692 | -108.30555 | 35054 ft | 425 kts | 39° |
| 2026-05-07 22:23 | 37.08045 | -108.25583 | 35046 ft | 423 kts | 39° |
| 2026-05-07 22:23 | 37.12385 | -108.20624 | 35034 ft | 423 kts | 39° |
| 2026-05-07 22:24 | 37.16712 | -108.15677 | 35046 ft | 424 kts | 39° |
| 2026-05-07 22:24 | 37.21078 | -108.10676 | 35046 ft | 426 kts | 39° |
| 2026-05-07 22:25 | 37.25444 | -108.05663 | 35052 ft | 425 kts | 39° |
| 2026-05-07 22:25 | 37.29789 | -108.00649 | 35055 ft | 423 kts | 39° |
| 2026-05-07 22:26 | 37.34127 | -107.95636 | 35056 ft | 424 kts | 39° |
| 2026-05-07 22:26 | 37.38476 | -107.90610 | 35073 ft | 425 kts | 39° |
| 2026-05-07 22:27 | 37.42834 | -107.85569 | 35075 ft | 426 kts | 39° |
| 2026-05-07 22:27 | 37.47200 | -107.80520 | 35073 ft | 426 kts | 39° |
| 2026-05-07 22:28 | 37.51555 | -107.75475 | 35087 ft | 425 kts | 39° |
| 2026-05-07 22:28 | 37.55902 | -107.70419 | 35104 ft | 425 kts | 38° |
| 2026-05-07 22:29 | 37.60222 | -107.65382 | 35122 ft | 426 kts | 38° |
| 2026-05-07 22:29 | 37.64581 | -107.60297 | 35123 ft | 427 kts | 38° |
| 2026-05-07 22:30 | 37.68949 | -107.55219 | 35122 ft | 427 kts | 38° |
| 2026-05-07 22:30 | 37.73319 | -107.50146 | 35139 ft | 426 kts | 38° |
| 2026-05-07 22:31 | 37.77667 | -107.45031 | 35148 ft | 428 kts | 39° |
| 2026-05-07 22:31 | 37.81971 | -107.39837 | 35155 ft | 427 kts | 39° |
| 2026-05-07 22:32 | 37.86294 | -107.34685 | 35156 ft | 426 kts | 38° |
| 2026-05-07 22:32 | 37.90638 | -107.29568 | 35147 ft | 428 kts | 38° |
| 2026-05-07 22:33 | 37.95008 | -107.24438 | 35147 ft | 428 kts | 38° |
| 2026-05-07 22:33 | 37.99364 | -107.19293 | 35150 ft | 428 kts | 38° |
| 2026-05-07 22:34 | 38.03713 | -107.14137 | 35132 ft | 428 kts | 38° |
| 2026-05-07 22:34 | 38.08052 | -107.08984 | 35135 ft | 427 kts | 39° |
| 2026-05-07 22:35 | 38.12376 | -107.03820 | 35146 ft | 428 kts | 38° |
| 2026-05-07 22:35 | 38.16587 | -106.98429 | 35120 ft | 433 kts | 44° |
| 2026-05-07 22:36 | 38.20424 | -106.92487 | 35129 ft | 436 kts | 46° |
| 2026-05-07 22:36 | 38.24222 | -106.86539 | 35114 ft | 436 kts | 45° |
| 2026-05-07 22:37 | 38.28092 | -106.80605 | 35103 ft | 434 kts | 45° |
| 2026-05-07 22:37 | 38.31960 | -106.74731 | 35105 ft | 432 kts | 45° |
| 2026-05-07 22:38 | 38.35838 | -106.68853 | 35116 ft | 435 kts | 45° |
| 2026-05-07 22:38 | 38.39728 | -106.62926 | 35114 ft | 437 kts | 44° |
| 2026-05-07 22:39 | 38.43622 | -106.56959 | 35105 ft | 438 kts | 45° |
| 2026-05-07 22:39 | 38.47484 | -106.50978 | 35101 ft | 435 kts | 45° |
| 2026-05-07 22:40 | 38.51336 | -106.45041 | 35104 ft | 434 kts | 45° |
| 2026-05-07 22:40 | 38.55211 | -106.39090 | 35104 ft | 436 kts | 44° |
| 2026-05-07 22:41 | 38.59096 | -106.33121 | 35117 ft | 438 kts | 44° |
| 2026-05-07 22:41 | 38.63005 | -106.27106 | 35107 ft | 440 kts | 44° |
| 2026-05-07 22:41 | 38.64964 | -106.24083 | 34841 ft | 444 kts | 44° |
| 2026-05-07 22:42 | 38.66935 | -106.21046 | 34419 ft | 443 kts | 44° |
| 2026-05-07 22:42 | 38.68892 | -106.18023 | 33912 ft | 439 kts | 44° |
| 2026-05-07 22:42 | 38.70836 | -106.15031 | 33327 ft | 437 kts | 44° |
| 2026-05-07 22:42 | 38.72789 | -106.12049 | 32727 ft | 438 kts | 44° |
| 2026-05-07 22:43 | 38.74759 | -106.09051 | 32108 ft | 441 kts | 44° |
| 2026-05-07 22:43 | 38.76745 | -106.06031 | 31462 ft | 445 kts | 44° |
| 2026-05-07 22:43 | 38.78748 | -106.02991 | 30832 ft | 449 kts | 45° |
| 2026-05-07 22:43 | 38.80755 | -105.99906 | 30201 ft | 452 kts | 45° |
| 2026-05-07 22:44 | 38.82755 | -105.96811 | 29741 ft | 448 kts | 45° |
| 2026-05-07 22:44 | 38.84721 | -105.93769 | 29245 ft | 439 kts | 45° |
| 2026-05-07 22:44 | 38.86660 | -105.90779 | 28484 ft | 434 kts | 45° |
| 2026-05-07 22:44 | 38.88587 | -105.87819 | 27781 ft | 431 kts | 45° |
| 2026-05-07 22:45 | 38.90490 | -105.84871 | 27116 ft | 427 kts | 45° |
| 2026-05-07 22:45 | 38.92371 | -105.81943 | 26510 ft | 423 kts | 45° |
| 2026-05-07 22:45 | 38.94236 | -105.79036 | 25897 ft | 420 kts | 45° |
| 2026-05-07 22:45 | 38.96081 | -105.76154 | 25401 ft | 414 kts | 46° |
| 2026-05-07 22:46 | 38.97905 | -105.73298 | 24666 ft | 414 kts | 45° |
| 2026-05-07 22:46 | 38.99733 | -105.70448 | 24089 ft | 411 kts | 46° |
| 2026-05-07 22:46 | 39.01534 | -105.67639 | 23721 ft | 402 kts | 45° |
| 2026-05-07 22:46 | 39.03287 | -105.64893 | 23357 ft | 393 kts | 45° |
| 2026-05-07 22:47 | 39.05011 | -105.62209 | 22873 ft | 385 kts | 46° |
| 2026-05-07 22:47 | 39.06711 | -105.59577 | 22293 ft | 381 kts | 46° |
| 2026-05-07 22:47 | 39.08404 | -105.56960 | 21655 ft | 380 kts | 46° |
| 2026-05-07 22:47 | 39.10066 | -105.54391 | 21061 ft | 378 kts | 46° |
| 2026-05-07 22:48 | 39.11733 | -105.51801 | 20540 ft | 374 kts | 46° |
| 2026-05-07 22:48 | 39.13382 | -105.49233 | 19948 ft | 371 kts | 46° |
| 2026-05-07 22:48 | 39.15018 | -105.46676 | 19378 ft | 369 kts | 47° |
| 2026-05-07 22:48 | 39.16642 | -105.44120 | 18889 ft | 367 kts | 47° |
| 2026-05-07 22:49 | 39.18239 | -105.41581 | 18360 ft | 364 kts | 47° |
| 2026-05-07 22:49 | 39.19833 | -105.39057 | 17743 ft | 361 kts | 47° |
| 2026-05-07 22:49 | 39.21395 | -105.36563 | 17322 ft | 353 kts | 47° |
| 2026-05-07 22:49 | 39.22903 | -105.34117 | 17005 ft | 343 kts | 47° |
| 2026-05-07 22:50 | 39.24374 | -105.31755 | 16749 ft | 333 kts | 47° |
| 2026-05-07 22:50 | 39.25813 | -105.29461 | 16497 ft | 325 kts | 47° |
| 2026-05-07 22:50 | 39.27237 | -105.27208 | 16295 ft | 324 kts | 47° |
| 2026-05-07 22:50 | 39.28488 | -105.24770 | 16104 ft | 333 kts | 66° |
| 2026-05-07 22:51 | 39.29064 | -105.21869 | 15987 ft | 336 kts | 78° |
| 2026-05-07 22:51 | 39.29406 | -105.18878 | 15845 ft | 336 kts | 80° |
| 2026-05-07 22:51 | 39.29720 | -105.15882 | 15664 ft | 336 kts | 80° |
| 2026-05-07 22:51 | 39.30024 | -105.12892 | 15469 ft | 335 kts | 80° |
| 2026-05-07 22:52 | 39.30317 | -105.09966 | 15271 ft | 334 kts | 81° |
| 2026-05-07 22:52 | 39.30622 | -105.06991 | 15058 ft | 333 kts | 80° |
| 2026-05-07 22:52 | 39.30944 | -105.04026 | 14866 ft | 333 kts | 79° |
| 2026-05-07 22:52 | 39.31278 | -105.01075 | 14674 ft | 331 kts | 79° |
| 2026-05-07 22:53 | 39.31673 | -104.98199 | 14532 ft | 318 kts | 75° |
| 2026-05-07 22:53 | 39.32158 | -104.95472 | 14319 ft | 304 kts | 73° |
| 2026-05-07 22:53 | 39.32666 | -104.92872 | 14128 ft | 296 kts | 72° |
| 2026-05-07 22:53 | 39.33183 | -104.90279 | 14059 ft | 299 kts | 72° |
| 2026-05-07 22:54 | 39.33705 | -104.87673 | 14009 ft | 300 kts | 71° |
| 2026-05-07 22:54 | 39.34297 | -104.85078 | 14001 ft | 302 kts | 69° |
| 2026-05-07 22:54 | 39.34949 | -104.82541 | 13641 ft | 296 kts | 68° |
| 2026-05-07 22:54 | 39.35616 | -104.80049 | 13268 ft | 290 kts | 66° |
| 2026-05-07 22:55 | 39.36258 | -104.77632 | 13022 ft | 280 kts | 67° |
| 2026-05-07 22:55 | 39.36883 | -104.75275 | 12746 ft | 273 kts | 67° |
| 2026-05-07 22:55 | 39.37632 | -104.73130 | 12606 ft | 257 kts | 46° |
| 2026-05-07 22:55 | 39.38912 | -104.71716 | 12573 ft | 224 kts | 24° |
| 2026-05-07 22:56 | 39.40275 | -104.70708 | 11914 ft | 230 kts | 21° |
| 2026-05-07 22:56 | 39.41634 | -104.69797 | 11605 ft | 218 kts | 21° |
| 2026-05-07 22:56 | 39.43033 | -104.69098 | 11123 ft | 208 kts | 0° |
| 2026-05-07 22:56 | 39.44461 | -104.69026 | 10655 ft | 203 kts | 353° |
| 2026-05-07 22:57 | 39.45865 | -104.69073 | 10290 ft | 198 kts | 352° |
| 2026-05-07 22:57 | 39.47217 | -104.69106 | 10146 ft | 192 kts | 352° |
| 2026-05-07 22:57 | 39.48562 | -104.69153 | 10074 ft | 195 kts | 352° |
| 2026-05-07 22:57 | 39.49937 | -104.69202 | 9990 ft | 200 kts | 353° |
| 2026-05-07 22:58 | 39.51333 | -104.69185 | 10002 ft | 201 kts | 355° |
| 2026-05-07 22:58 | 39.52737 | -104.69138 | 10005 ft | 201 kts | 355° |
| 2026-05-07 22:58 | 39.54132 | -104.69098 | 10007 ft | 200 kts | 354° |
| 2026-05-07 22:58 | 39.55529 | -104.69091 | 10000 ft | 202 kts | 354° |
| 2026-05-07 22:59 | 39.56937 | -104.69082 | 9992 ft | 201 kts | 354° |
| 2026-05-07 22:59 | 39.58336 | -104.69056 | 10004 ft | 202 kts | 354° |
| 2026-05-07 22:59 | 39.59742 | -104.69042 | 9988 ft | 202 kts | 354° |
| 2026-05-07 22:59 | 39.61145 | -104.69026 | 9982 ft | 202 kts | 354° |
| 2026-05-07 23:00 | 39.62558 | -104.69008 | 9991 ft | 203 kts | 355° |
| 2026-05-07 23:00 | 39.63993 | -104.68978 | 9710 ft | 206 kts | 355° |
| 2026-05-07 23:00 | 39.65410 | -104.68959 | 9417 ft | 200 kts | 354° |
| 2026-05-07 23:00 | 39.66794 | -104.68944 | 9102 ft | 198 kts | 353° |
| 2026-05-07 23:01 | 39.68177 | -104.68929 | 8832 ft | 198 kts | 353° |
| 2026-05-07 23:01 | 39.69530 | -104.68915 | 8576 ft | 189 kts | 355° |
| 2026-05-07 23:01 | 39.70798 | -104.68901 | 8335 ft | 178 kts | 354° |
| 2026-05-07 23:01 | 39.72009 | -104.68881 | 8160 ft | 169 kts | 354° |
| 2026-05-07 23:02 | 39.73208 | -104.68876 | 7974 ft | 174 kts | 354° |
| 2026-05-07 23:02 | 39.74414 | -104.68858 | 7741 ft | 172 kts | 354° |
| 2026-05-07 23:02 | 39.75621 | -104.68843 | 7503 ft | 172 kts | 355° |
| 2026-05-07 23:02 | 39.76781 | -104.68837 | 7209 ft | 174 kts | 354° |
| 2026-05-07 23:03 | 39.77926 | -104.68825 | 7016 ft | 169 kts | 354° |
| 2026-05-07 23:03 | 39.79044 | -104.68790 | 6764 ft | 156 kts | 353° |
| 2026-05-07 23:03 | 39.80094 | -104.68778 | 6586 ft | 147 kts | 353° |
| 2026-05-07 23:03 | 39.81098 | -104.68780 | 6492 ft | 146 kts | 353° |
| 2026-05-07 23:04 | 39.82133 | -104.68753 | 6285 ft | 147 kts | 351° |
| 2026-05-07 23:04 | 39.83170 | -104.68759 | 6038 ft | 154 kts | 354° |
| 2026-05-07 23:04 | 39.84243 | -104.68738 | 5770 ft | 153 kts | 355° |
| 2026-05-07 23:04 | 39.85285 | -104.68730 | 5578 ft | 148 kts | 353° |
| 2026-05-07 23:05 | 39.86308 | -104.68715 | 5392 ft | 145 kts | 354° |
| 2026-05-07 23:05 | 39.87265 | -104.68717 | 5362 ft | 122 kts | 359° |
| 2026-05-07 23:05 | 39.87954 | -104.68700 | 5362 ft | 78 kts | 1° |
| 2026-05-07 23:05 | 39.88297 | -104.68694 | 5362 ft | 29 kts | 5° |
| 2026-05-07 23:06 | 39.88455 | -104.68658 | 5361 ft | 22 kts | 18° |
| 2026-05-07 23:06 | 39.88550 | -104.68604 | 5361 ft | 22 kts | 29° |
| 2026-05-07 23:06 | 39.88598 | -104.68561 | 5361 ft | 4 kts | 46° |
| 2026-05-07 23:06 | 39.88609 | -104.68534 | 5360 ft | 3 kts | 73° |
| 2026-05-07 23:07 | 39.88607 | -104.68504 | 5361 ft | 2 kts | 114° |
| 2026-05-07 23:07 | 39.88601 | -104.68495 | 5361 ft | 2 kts | 134° |
| 2026-05-07 23:07 | 39.88581 | -104.68482 | 5359 ft | 7 kts | 166° |
| 2026-05-07 23:07 | 39.88503 | -104.68480 | 5361 ft | 15 kts | 181° |
| 2026-05-07 23:08 | 39.88378 | -104.68483 | 5361 ft | 19 kts | 180° |
| 2026-05-07 23:08 | 39.88249 | -104.68484 | 5361 ft | 18 kts | 180° |
| 2026-05-07 23:08 | 39.88122 | -104.68485 | 5362 ft | 18 kts | 180° |
| 2026-05-07 23:08 | 39.87999 | -104.68487 | 5362 ft | 18 kts | 180° |
| 2026-05-07 23:09 | 39.87877 | -104.68488 | 5362 ft | 17 kts | 180° |
| 2026-05-07 23:09 | 39.87758 | -104.68490 | 5361 ft | 17 kts | 180° |
| 2026-05-07 23:09 | 39.87642 | -104.68491 | 5362 ft | 17 kts | 180° |
| 2026-05-07 23:09 | 39.87527 | -104.68492 | 5362 ft | 16 kts | 180° |
| 2026-05-07 23:10 | 39.87416 | -104.68493 | 5362 ft | 16 kts | 180° |
| 2026-05-07 23:10 | 39.87298 | -104.68495 | 5362 ft | 20 kts | 180° |
| 2026-05-07 23:10 | 39.87141 | -104.68497 | 5363 ft | 25 kts | 181° |
| 2026-05-07 23:10 | 39.86947 | -104.68499 | 5363 ft | 30 kts | 180° |
| 2026-05-07 23:11 | 39.86726 | -104.68502 | 5361 ft | 32 kts | 180° |
| 2026-05-07 23:11 | 39.86517 | -104.68504 | 5363 ft | 29 kts | 180° |
| 2026-05-07 23:11 | 39.86329 | -104.68506 | 5365 ft | 26 kts | 180° |
| 2026-05-07 23:11 | 39.86157 | -104.68508 | 5369 ft | 23 kts | 180° |
| 2026-05-07 23:12 | 39.86003 | -104.68510 | 5370 ft | 21 kts | 180° |
| 2026-05-07 23:12 | 39.85855 | -104.68511 | 5370 ft | 21 kts | 180° |
| 2026-05-07 23:12 | 39.85712 | -104.68512 | 5370 ft | 20 kts | 180° |
| 2026-05-07 23:12 | 39.85578 | -104.68513 | 5374 ft | 18 kts | 181° |
| 2026-05-07 23:13 | 39.85458 | -104.68515 | 5375 ft | 16 kts | 181° |
| 2026-05-07 23:13 | 39.85351 | -104.68515 | 5375 ft | 15 kts | 170° |
| 2026-05-07 23:13 | 39.85308 | -104.68418 | 5380 ft | 12 kts | 91° |
| 2026-05-07 23:13 | 39.85308 | -104.68313 | 5383 ft | 13 kts | 90° |
| 2026-05-07 23:14 | 39.85297 | -104.68178 | 5382 ft | 16 kts | 111° |
| 2026-05-07 23:14 | 39.85282 | -104.68067 | 5381 ft | 12 kts | 90° |
| 2026-05-07 23:14 | 39.85282 | -104.67959 | 5384 ft | 12 kts | 90° |
| 2026-05-07 23:14 | 39.85298 | -104.67888 | 5384 ft | 7 kts | 29° |
| 2026-05-07 23:15 | 39.85326 | -104.67881 | 5384 ft | 1 kts | 2° |
| 2026-05-07 23:15 | 39.85334 | -104.67881 | 5384 ft | 0 kts | 2° |